map of SPC home
SPC - Airport
Location
City:  Santa Cruz de La Palma, Canary Islands, Spain
ICAO:GCLA
IATA:SPC

Details
Type:Airport (Aerodrome, Airfield)
Use:Public/Civil
Latitude:2837'35"N (28.626478)
Longitude:1745'20"W (-17.755610)
Datum:WGS 1984
Elevation:107 ft (33 m)
Variation:5.20W (WMM2015v2 magnetic declination)
0.16 annual change
Runways:1
Longest:7218 × 148 ft (2200 × 45 m), paved

Time
Time Zone:UTC+0 (DST+1)
Local Time:

Weather
METAR:GCLA 041400Z 03010KT 360V070 9999 SCT035 21/12 Q1022
TAF:GCLA 040800Z 0409/0509 02013KT 9999 FEW040 TX21/0414Z TN16/0506Z PROB30
TEMPO 0503/0509 4900 HZ

Related Locations
Nearby:
Farthest:LDH: 12161 mi / 19571 km
Lord Howe Island, NSW, AU

Find:

   beyond  
but within

Other Information
Maps:
NOTAMs:
Links:
Sources:

  
  • flag of Spain
  • flag of Canary Islands
  

Sectional Chart

Flight Planning
at skyvector.com

Satellite Image

Google Maps Satellite view

 

Copyright © 2004-2019 Karl L. Swartz. All rights reserved.
The Great Circle Mapper name and logo are trademarks of the Great Circle Mapper.
All other trademarks mentioned herein belong to their respective owners.
Please see credits for attibutions and further copyright information.

  Follow gcmap on Facebook Follow gcmap on Twitter GCmap on LinkedIn

hCard Microformat

Geo Microformat